Chennai, India
Current Conditions -  °F | °C
As of 6:40 AM on Thursday 27 Nov 2014 (Local Time) from VOMM Reporting Station
Haze Haze  
Wind Chill: 75°   Ceiling: Unl
Heat Index: 75°   Visibility: 1.2mi
Dew Point: 72°   Wind: 5mph
Humidity: 89%   Direction: 300°WNW
Pressure: 29.83"   Gusts: NA
Location:  13.06°N, 80.25°E
Report Text: VOMM 270140Z 30004KT 2000 BR FEW020 SCT100 24/22 Q1010 NOSIG
Loading
Personal Weather Stations






























Interactive Weather Map New forecast layout! Learn more

10-Day Weather Forecast

Advertisements
Track Severe Weather on mobile